Linden, MI

2:06 AM EST on March 01, 2015 (GMT -0500)
Chestnut Grove | Change Station
CLOSE
Current Station
Personal Weather Station
Location: Linden, MI
Elevation: 872 ft
Nearby Weather Stations

Elev 872 ft 42.81 °N, 83.80 °W | Updated 18 seconds ago

Partly Cloudy
Partly Cloudy
13.9 °F
Feels Like 14 °F
N
1.0
Wind Variable Wind from SSW
Gusts 1.0 mph

Today
High -- | Low -- °F
--% Chance of Precip.
Yesterday
High -- | Low -- °F
Precip. -- in
7:11 AM 6:24 PM
Waxing Gibbous, 83% visible
Pressure 30.54 in
Visibility 2.0 miles
Clouds Overcast 2600 ft
Windchill 14 °F
Dew Point 9 °F
Humidity 81%
Rainfall 0.00 in
Snow Depth Not available.
UV 0 out of 12
Pollen .40 out of 12
Air Quality Not available.
Flu Activity Not available.
METAR KFNT 010653Z AUTO 20003KT 2SM -SN OVC026 M09/M13 A3049 RMK AO2 SNB08 SLP340 P0000 T10891128

More Conditions Fewer Conditions

Pressure 30.54 in
Visibility 2.0 miles
Clouds Overcast 2600 ft
Windchill 14 °F
Dew Point 9 °F
Humidity 81%
Rainfall 0.00 in
Snow Depth Not available.
UV 0 out of 12
Pollen .40 out of 12
Air Quality Not available.
Flu Activity Not available.
METAR KFNT 010653Z AUTO 20003KT 2SM -SN OVC026 M09/M13 A3049 RMK AO2 SNB08 SLP340 P0000 T10891128

More Conditions Fewer Conditions

10-Day Weather Forecast

Almanac

Astronomy

Mar. 01, 2015 Rise Set
Actual Time
Civil Twilight
Nautical Twilight
Astronomical Twilight
Moon
Length of Visible Light
Length of Day
Tomorrow will be .
, % of the Moon is Illuminated

Today's Extremes

State Highs State Lows

Community

WunderPhotos

Upload Photos

1,801,347 photos uploaded!

WunderBlogs® & News

Nearby

Air Quality

  Air Quality AQ Index Pollutant
Not available.

Snow Depth

Station Depth Elevation

Earthquake Activity

City Distance Mag. Time & Date
Minimum magnitude displayed is 2.5.

Coastal Water Temperatures

Place Temperature

Nearby Weather Stations